createdAt,value
2019-01-25T00:00:15.373Z,67
2019-01-25T00:05:17.822Z,68
2019-01-25T00:10:20.282Z,69
2019-01-25T00:15:22.742Z,75
2019-01-25T00:20:25.186Z,67
2019-01-25T00:25:27.658Z,69
2019-01-25T00:30:30.126Z,61
2019-01-25T00:35:32.689Z,63
2019-01-25T00:40:35.019Z,69
2019-01-25T00:45:37.481Z,64
2019-01-25T00:50:39.941Z,67
2019-01-25T00:55:42.394Z,63
2019-01-25T01:00:44.862Z,60
2019-01-25T01:05:47.347Z,73
2019-01-25T01:10:49.777Z,61
2019-01-25T01:15:52.213Z,67
2019-01-25T01:20:54.689Z,70
2019-01-25T01:25:57.146Z,65
2019-01-25T01:30:59.623Z,64
2019-01-25T01:36:02.063Z,66
2019-01-25T01:41:04.513Z,69
2019-01-25T01:46:07.055Z,69
2019-01-25T01:51:09.454Z,71
2019-01-25T01:56:11.882Z,60
2019-01-25T02:01:14.329Z,72
2019-01-25T02:06:16.793Z,63
2019-01-25T02:11:19.259Z,69
2019-01-25T02:16:21.708Z,76
2019-01-25T02:21:24.152Z,69
2019-01-25T02:26:26.651Z,71
2019-01-25T02:31:29.059Z,72
2019-01-25T02:36:31.534Z,73
2019-01-25T02:41:34.026Z,85
2019-01-25T02:46:36.438Z,75
2019-01-25T02:51:38.922Z,74
2019-01-25T02:56:41.374Z,75
2019-01-25T03:01:43.879Z,82
2019-01-25T03:06:46.330Z,95
2019-01-25T03:11:48.727Z,78
2019-01-25T03:16:51.183Z,86
2019-01-25T03:21:53.668Z,66
2019-01-25T03:26:56.095Z,74
2019-01-25T03:32:03.554Z,77
2019-01-25T03:37:01.001Z,73
2019-01-25T03:42:03.465Z,77
2019-01-25T03:47:05.941Z,77
2019-01-25T03:52:08.378Z,78
2019-01-25T03:57:10.835Z,80
2019-01-25T04:02:13.300Z,72
2019-01-25T04:07:15.751Z,77
2019-01-25T04:12:18.209Z,82
2019-01-25T04:17:20.651Z,84
2019-01-25T04:22:23.109Z,78
2019-01-25T04:27:25.582Z,74
2019-01-25T04:32:28.026Z,74
2019-01-25T04:37:30.473Z,85
2019-01-25T04:42:33.066Z,72
2019-01-25T04:47:35.401Z,75
2019-01-25T04:52:37.868Z,71
2019-01-25T04:57:40.366Z,76
2019-01-25T05:02:42.841Z,82
2019-01-25T05:07:45.216Z,80
2019-01-25T05:12:49.005Z,88
2019-01-25T05:17:50.142Z,72
2019-01-25T05:22:52.614Z,69
2019-01-25T05:27:55.141Z,73
2019-01-25T05:32:57.557Z,75
2019-01-25T05:37:59.971Z,86
2019-01-25T05:43:02.522Z,70
2019-01-25T05:48:04.888Z,70
2019-01-25T05:53:07.412Z,67
2019-01-25T05:58:09.788Z,62
2019-01-25T06:03:12.275Z,69
2019-01-25T06:08:14.699Z,63
2019-01-25T06:13:17.160Z,70
2019-01-25T06:18:19.631Z,68
2019-01-25T06:23:22.078Z,71
2019-01-25T06:28:24.534Z,76
2019-01-25T06:33:26.999Z,60
2019-01-25T06:38:29.455Z,62
2019-01-25T06:43:31.908Z,76
2019-01-25T06:53:36.819Z,62
2019-01-25T06:58:39.283Z,71
2019-01-25T07:03:41.751Z,64
2019-01-25T07:08:44.193Z,65
2019-01-25T07:13:46.642Z,64
2019-01-25T07:18:49.105Z,74
2019-01-25T07:23:51.555Z,70
2019-01-25T07:28:54.091Z,73
2019-01-25T07:33:56.513Z,71
2019-01-25T07:38:58.961Z,61
2019-01-25T07:44:01.401Z,64
2019-01-25T07:49:03.916Z,63
2019-01-25T07:54:06.330Z,59
2019-01-25T07:59:08.782Z,65
2019-01-25T08:04:11.203Z,58
2019-01-25T08:09:13.676Z,53
2019-01-25T08:14:16.174Z,68
2019-01-25T08:19:18.614Z,58
2019-01-25T08:24:21.038Z,54
2019-01-25T08:29:27.822Z,63
2019-01-25T08:34:25.965Z,56
2019-01-25T08:39:28.408Z,55
2019-01-25T08:44:30.870Z,54
2019-01-25T08:49:33.329Z,73
2019-01-25T08:54:35.795Z,47
2019-01-25T08:59:38.250Z,47
2019-01-25T09:04:40.709Z,45
2019-01-25T09:09:43.187Z,47
2019-01-25T09:14:45.616Z,59
2019-01-25T09:19:48.129Z,57
2019-01-25T09:24:50.618Z,53
2019-01-25T09:29:53.060Z,54
2019-01-25T09:34:55.460Z,53
2019-01-25T09:39:57.961Z,56
2019-01-25T09:45:00.394Z,56
2019-01-25T09:50:02.938Z,61
2019-01-25T09:55:05.401Z,59
2019-01-25T10:00:07.820Z,62
2019-01-25T10:05:10.244Z,61
2019-01-25T10:10:12.801Z,63
2019-01-25T10:15:15.182Z,58
2019-01-25T10:20:17.690Z,49
2019-01-25T10:25:20.099Z,55
2019-01-25T10:30:22.572Z,53
2019-01-25T10:35:25.025Z,57
2019-01-25T10:40:27.485Z,54
2019-01-25T10:45:29.977Z,54
2019-01-25T10:50:32.507Z,54
2019-01-25T10:55:34.887Z,62
2019-01-25T11:00:37.382Z,61
2019-01-25T11:05:39.819Z,59
2019-01-25T11:10:42.297Z,63
2019-01-25T11:15:44.788Z,61
2019-01-25T11:20:47.226Z,60
2019-01-25T11:25:49.683Z,62
2019-01-25T11:30:52.142Z,58
2019-01-25T11:35:54.591Z,53
2019-01-25T11:40:57.059Z,52
2019-01-25T11:45:59.527Z,56
2019-01-25T11:51:02.042Z,50
2019-01-25T11:56:04.445Z,68
2019-01-25T12:01:06.935Z,59
2019-01-25T12:06:09.466Z,63
2019-01-25T12:11:11.885Z,57
2019-01-25T12:16:14.367Z,62
2019-01-25T12:21:16.847Z,68
2019-01-25T12:26:19.287Z,69
2019-01-25T12:31:21.720Z,63
2019-01-25T12:36:24.219Z,62
2019-01-25T12:41:26.619Z,71
2019-01-25T12:46:29.093Z,75
2019-01-25T12:51:31.540Z,66
2019-01-25T12:56:34.027Z,66
2019-01-25T13:01:36.450Z,68
2019-01-25T13:06:38.912Z,76
2019-01-25T13:11:41.373Z,77
2019-01-25T13:16:43.825Z,73
2019-01-25T13:21:46.448Z,74
2019-01-25T13:26:48.758Z,72
2019-01-25T13:31:51.226Z,85
2019-01-25T13:36:57.073Z,79
2019-01-25T13:41:56.132Z,90
2019-01-25T13:46:58.579Z,75
2019-01-25T13:52:01.033Z,63
2019-01-25T13:57:03.530Z,53
2019-01-25T14:02:05.957Z,70
2019-01-25T14:07:08.406Z,63
2019-01-25T14:12:10.871Z,61
2019-01-25T14:17:13.322Z,74
2019-01-25T14:22:15.794Z,68
2019-01-25T14:27:18.245Z,76
2019-01-25T14:32:20.693Z,67
2019-01-25T14:37:23.177Z,65
2019-01-25T14:42:25.671Z,66
2019-01-25T14:47:28.108Z,47
2019-01-25T14:52:30.626Z,37
2019-01-25T14:57:32.969Z,40
2019-01-25T15:02:35.440Z,55
2019-01-25T15:07:37.959Z,62
2019-01-25T15:12:40.352Z,58
2019-01-25T15:17:42.808Z,57
2019-01-25T15:22:45.254Z,47
2019-01-25T15:32:50.189Z,50
2019-01-25T15:37:52.665Z,49
2019-01-25T15:42:55.114Z,45
2019-01-25T15:47:57.542Z,43
2019-01-25T15:52:59.986Z,44
2019-01-25T15:58:02.517Z,38
2019-01-25T16:03:04.923Z,49
2019-01-25T16:08:07.406Z,41
2019-01-25T16:13:09.835Z,41
2019-01-25T16:18:12.277Z,41
2019-01-25T16:23:14.762Z,43
2019-01-25T16:28:17.202Z,46
2019-01-25T16:33:19.647Z,30
2019-01-25T16:38:22.131Z,22
2019-01-25T16:43:24.573Z,32
2019-01-25T16:48:27.040Z,30
2019-01-25T16:53:29.471Z,29
2019-01-25T16:58:32.016Z,44
2019-01-25T17:03:34.399Z,27
2019-01-25T17:08:36.868Z,22
2019-01-25T17:13:39.299Z,33
2019-01-25T17:18:41.748Z,36
2019-01-25T17:23:44.228Z,34
2019-01-25T17:28:46.708Z,37
2019-01-25T17:33:49.148Z,33
2019-01-25T17:38:51.595Z,29
2019-01-25T17:43:54.077Z,30
2019-01-25T17:48:56.490Z,23
2019-01-25T17:53:58.951Z,34
2019-01-25T17:59:01.476Z,26
2019-01-25T18:04:03.873Z,33
2019-01-25T18:09:06.356Z,25
2019-01-25T18:14:08.879Z,33
2019-01-25T18:19:11.272Z,28
2019-01-25T18:24:13.715Z,20
2019-01-25T18:29:16.310Z,37
2019-01-25T18:34:18.657Z,37
2019-01-25T18:39:21.076Z,40
2019-01-25T18:44:23.530Z,47
2019-01-25T18:49:25.975Z,53
2019-01-25T18:54:28.432Z,41
2019-01-25T18:59:30.904Z,44
2019-01-25T19:04:33.379Z,43
2019-01-25T19:09:35.891Z,45
2019-01-25T19:14:38.262Z,44
2019-01-25T19:19:40.737Z,37
2019-01-25T19:24:43.175Z,35
2019-01-25T19:29:45.921Z,43
2019-01-25T19:34:48.126Z,39
2019-01-25T19:39:50.552Z,39
2019-01-25T19:44:52.997Z,29
2019-01-25T19:49:55.459Z,31
2019-01-25T19:54:57.926Z,27
2019-01-25T20:00:00.404Z,37
2019-01-25T20:05:02.846Z,17
2019-01-25T20:10:05.288Z,25
2019-01-25T20:15:07.768Z,33
2019-01-25T20:20:10.297Z,45
2019-01-25T20:25:12.704Z,30
2019-01-25T20:30:15.194Z,27
2019-01-25T20:35:17.659Z,25
2019-01-25T20:40:20.050Z,29
2019-01-25T20:45:26.988Z,33
2019-01-25T20:50:25.001Z,27
2019-01-25T20:55:27.440Z,33
2019-01-25T21:05:32.345Z,30
2019-01-25T21:10:34.762Z,32
2019-01-25T21:15:37.335Z,35
2019-01-25T21:20:39.666Z,19
2019-01-25T21:25:42.179Z,31
2019-01-25T21:30:44.597Z,27
2019-01-25T21:35:47.069Z,27
2019-01-25T21:40:49.499Z,22
2019-01-25T21:45:51.983Z,25
2019-01-25T21:50:54.403Z,31
2019-01-25T21:55:56.878Z,28
2019-01-25T22:00:59.343Z,28
2019-01-25T22:06:01.833Z,23
2019-01-25T22:11:04.251Z,19
2019-01-25T22:16:06.968Z,21
2019-01-25T22:21:09.164Z,16
2019-01-25T22:26:11.617Z,20
2019-01-25T22:31:14.066Z,26
2019-01-25T22:36:16.527Z,19
2019-01-25T22:41:19.001Z,19
2019-01-25T22:46:21.447Z,29
2019-01-25T22:51:24.017Z,23
2019-01-25T22:56:26.380Z,19
2019-01-25T23:01:28.833Z,17
2019-01-25T23:06:31.341Z,18
2019-01-25T23:11:33.736Z,22
2019-01-25T23:16:36.218Z,15
2019-01-25T23:21:38.656Z,16
2019-01-25T23:26:41.101Z,21
2019-01-25T23:31:43.577Z,21
2019-01-25T23:36:46.020Z,20
2019-01-25T23:41:48.492Z,19
2019-01-25T23:46:50.934Z,17
2019-01-25T23:51:53.398Z,16
2019-01-25T23:56:55.864Z,19
